Time;durP1;ratioP1;P1;durP2;ratioP2;P2;SDS_P1;SDS_P2;PMS_P1;PMS_P2;Temp;Humidity;BMP_temperature;BMP_pressure;BME280_temperature;BME280_humidity;BME280_pressure;Samples;Min_cycle;Max_cycle;Signal;HPM_P1;HPM_P2
2023/05/11 00:00:27;;;;;;;;;4.25;4.00;;;;;16.76;54.79;100992.69;4919752;28;45432;-63
2023/05/11 00:02:52;;;;;;;;;6.00;6.00;;;;;16.69;54.91;100983.69;4950467;28;45545;-63
2023/05/11 00:05:18;;;;;;;;;3.00;3.00;;;;;16.61;54.93;100968.28;4935147;28;45563;-63
2023/05/11 00:07:44;;;;;;;;;2.75;2.25;;;;;16.71;54.84;100982.31;4917073;28;46083;-63
2023/05/11 00:10:10;;;;;;;;;3.75;3.75;;;;;16.65;54.82;100955.63;4916566;28;45210;-63
2023/05/11 00:12:35;;;;;;;;;5.00;4.00;;;;;16.81;54.67;100981.69;4946810;28;45305;-63
2023/05/11 00:15:01;;;;;;;;;3.50;2.00;;;;;16.75;54.62;100977.16;4916514;28;45361;-64
2023/05/11 00:17:26;;;;;;;;;4.75;4.00;;;;;16.73;54.77;100979.31;4915838;28;45724;-63
2023/05/11 00:19:52;;;;;;;;;3.25;2.00;;;;;16.62;54.94;100972.75;4925121;28;45306;-63
2023/05/11 00:22:17;;;;;;;;;6.00;3.50;;;;;16.69;55.03;100976.19;4995423;28;45428;-62
2023/05/11 00:24:43;;;;;;;;;3.00;3.00;;;;;16.66;54.84;100965.63;5016082;28;45368;-63
2023/05/11 00:27:08;;;;;;;;;4.25;2.00;;;;;16.65;54.70;100973.09;5031393;28;46089;-63
2023/05/11 00:29:34;;;;;;;;;3.75;3.75;;;;;16.69;54.70;100961.53;5031368;28;45259;-63
2023/05/11 00:32:00;;;;;;;;;3.25;3.25;;;;;16.63;54.67;100953.09;5016757;28;45349;-63
2023/05/11 00:34:25;;;;;;;;;4.25;3.75;;;;;16.66;54.57;100952.59;5031779;28;45420;-63
2023/05/11 00:36:51;;;;;;;;;3.75;3.00;;;;;16.75;54.60;100964.13;5014267;28;46358;-62
2023/05/11 00:39:17;;;;;;;;;4.25;4.00;;;;;16.60;54.55;100948.03;5015903;28;45418;-62
2023/05/11 00:41:42;;;;;;;;;6.20;5.00;;;;;16.67;54.80;100964.53;5031488;28;45436;-62
2023/05/11 00:44:08;;;;;;;;;4.25;3.75;;;;;16.68;54.41;100966.22;5031752;28;45443;-62
2023/05/11 00:46:33;;;;;;;;;8.50;4.50;;;;;16.70;54.52;100961.25;5015921;28;46424;-63
2023/05/11 00:49:00;;;;;;;;;23.50;16.00;;;;;16.65;54.55;100955.63;5030969;28;45409;-63
2023/05/11 00:51:26;;;;;;;;;4.20;4.20;;;;;16.61;54.71;100955.28;5014612;28;45384;-62
2023/05/11 00:53:52;;;;;;;;;4.60;3.80;;;;;16.73;54.50;100957.16;5030940;28;45379;-63
2023/05/11 00:56:18;;;;;;;;;7.75;4.75;;;;;16.67;54.85;100964.53;5014667;28;46514;-62
2023/05/11 00:58:44;;;;;;;;;5.80;3.20;;;;;16.58;55.05;100958.53;5015716;28;45318;-63
2023/05/11 01:01:09;;;;;;;;;4.25;2.75;;;;;16.61;55.18;100958.06;5016080;28;45440;-62
2023/05/11 01:03:35;;;;;;;;;3.25;2.75;;;;;16.62;54.65;100959.75;5015972;28;45416;-63
2023/05/11 01:06:14;;;;;;;;;0.00;0.00;;;;;16.59;55.20;100956.63;5031055;28;45930;-63
2023/05/11 01:08:49;;;;;;;;;5.00;3.80;;;;;16.42;55.31;100935.22;5047008;28;45363;-63
2023/05/11 01:11:40;;;;;;;;;3.60;3.60;;;;;16.61;55.15;100959.97;5046865;28;45327;-63
2023/05/11 01:14:15;;;;;;;;;5.40;3.00;;;;;16.59;54.84;100953.84;5047571;28;45402;-64
2023/05/11 01:16:42;;;;;;;;;3.00;2.40;;;;;16.57;55.42;100951.31;5045387;28;45886;-63
2023/05/11 01:19:11;;;;;;;;;4.00;2.40;;;;;16.56;55.15;100957.09;5046615;28;45329;-63
2023/05/11 01:21:37;;;;;;;;;2.00;2.00;;;;;16.55;55.30;100958.19;5014496;28;45373;-64
2023/05/11 01:24:23;;;;;;;;;4.00;3.50;;;;;16.55;55.50;100955.44;5031158;28;45566;-64
2023/05/11 01:27:12;;;;;;;;;3.20;2.00;;;;;16.48;55.70;100955.56;5047261;28;45930;-64
2023/05/11 01:29:43;;;;;;;;;1.00;1.00;;;;;16.45;55.42;100950.53;5015820;28;45405;-63
2023/05/11 01:32:13;;;;;;;;;3.20;2.00;;;;;16.46;55.57;100958.59;5015344;28;45362;-63
2023/05/11 01:34:39;;;;;;;;;1.60;1.60;;;;;16.38;55.50;100957.03;5030227;28;45352;-64
2023/05/11 01:37:09;;;;;;;;;2.50;1.75;;;;;16.40;55.61;100954.84;5047184;28;45372;-64
2023/05/11 01:39:51;;;;;;;;;3.40;2.00;;;;;16.30;55.84;100956.59;5015319;28;45543;-63
2023/05/11 01:42:16;;;;;;;;;3.40;2.20;;;;;16.21;56.31;100953.34;5015574;28;45346;-64
2023/05/11 01:44:43;;;;;;;;;1.75;1.75;;;;;16.19;56.50;100952.75;5047713;28;45547;-63
2023/05/11 01:47:09;;;;;;;;;1.60;1.40;;;;;16.20;56.31;100949.75;5030270;28;47411;-63
2023/05/11 01:49:37;;;;;;;;;2.40;1.00;;;;;16.11;56.44;100952.06;5029168;28;45456;-63
2023/05/11 01:52:03;;;;;;;;;2.20;2.20;;;;;16.20;56.68;100958.06;5047047;28;45435;-63
2023/05/11 01:54:29;;;;;;;;;2.75;1.00;;;;;16.22;56.72;100964.19;5013840;28;45445;-64
2023/05/11 01:56:54;;;;;;;;;2.20;1.20;;;;;16.25;56.47;100946.25;5001741;28;45460;-64
2023/05/11 01:59:20;;;;;;;;;2.50;2.00;;;;;16.25;56.48;100958.19;4946181;28;45269;-63
2023/05/11 02:01:45;;;;;;;;;3.25;2.00;;;;;16.23;56.60;100956.75;4914671;28;45485;-64
2023/05/11 02:04:12;;;;;;;;;3.50;2.50;;;;;16.22;56.63;100955.06;4901509;28;45623;-64
2023/05/11 02:06:37;;;;;;;;;6.60;2.60;;;;;16.27;56.75;100963.44;4929461;28;46227;-64
2023/05/11 02:09:03;;;;;;;;;2.00;1.25;;;;;16.24;56.56;100955.66;4915267;28;45267;-64
2023/05/11 02:11:28;;;;;;;;;2.00;2.00;;;;;16.33;56.43;100964.41;4914958;28;45236;-64
2023/05/11 02:13:55;;;;;;;;;2.00;0.50;;;;;16.37;56.50;100966.44;4913939;28;45363;-63
2023/05/11 02:16:21;;;;;;;;;2.00;2.00;;;;;16.38;56.44;100970.91;4914970;28;45558;-63
2023/05/11 02:18:47;;;;;;;;;3.00;2.80;;;;;16.33;56.61;100964.41;4913039;28;45459;-63
2023/05/11 02:21:12;;;;;;;;;2.00;1.00;;;;;16.31;56.60;100975.75;4913696;28;45402;-63
2023/05/11 02:23:38;;;;;;;;;3.25;2.50;;;;;16.36;56.83;100966.69;4929277;28;45580;-63
2023/05/11 02:26:03;;;;;;;;;4.50;3.25;;;;;16.30;57.10;100975.97;4914622;28;45557;-63
2023/05/11 02:28:29;;;;;;;;;4.00;2.25;;;;;16.26;57.21;100970.94;4929159;28;45405;-64
2023/05/11 02:30:56;;;;;;;;;6.50;2.50;;;;;16.17;57.38;100964.06;4913852;28;45239;-64
2023/05/11 02:33:30;;;;;;;;;3.00;3.00;;;;;16.04;58.24;100978.19;4913518;28;45390;-63
2023/05/11 02:35:55;;;;;;;;;2.40;2.40;;;;;15.99;58.39;100968.72;4913087;28;46767;-63
2023/05/11 02:38:23;;;;;;;;;3.25;2.00;;;;;15.96;58.76;100973.88;4929054;28;45327;-65
2023/05/11 02:40:49;;;;;;;;;2.00;2.00;;;;;15.99;59.03;100976.16;4929003;28;45371;-63
2023/05/11 02:43:19;;;;;;;;;3.00;3.00;;;;;15.92;58.96;100968.00;4913440;28;45494;-64
2023/05/11 02:45:45;;;;;;;;;2.00;2.00;;;;;15.89;59.17;100976.72;4928524;28;46712;-63
2023/05/11 02:48:24;;;;;;;;;3.00;2.50;;;;;15.92;59.08;100981.84;4914744;28;45390;-64
2023/05/11 02:50:50;;;;;;;;;6.80;3.80;;;;;15.85;58.99;100965.31;4929313;28;45331;-63
2023/05/11 02:53:16;;;;;;;;;3.00;2.00;;;;;15.87;59.07;100951.25;4929336;28;45618;-63
2023/05/11 02:55:41;;;;;;;;;3.50;3.50;;;;;15.92;59.14;100961.59;4928712;28;47162;-63
2023/05/11 02:58:07;;;;;;;;;3.00;3.00;;;;;15.98;58.79;100975.34;4998816;28;45318;-62
2023/05/11 03:00:33;;;;;;;;;4.25;3.00;;;;;16.03;58.56;100969.06;5047046;28;45336;-63
2023/05/11 03:02:58;;;;;;;;;1.75;0.00;;;;;15.90;58.23;100950.75;5013497;28;45302;-62
2023/05/11 03:05:24;;;;;;;;;3.50;1.25;;;;;15.93;58.40;100966.91;5029700;28;46754;-63
2023/05/11 03:07:51;;;;;;;;;1.75;1.75;;;;;15.83;58.30;100945.34;5012917;28;45215;-63
2023/05/11 03:10:16;;;;;;;;;2.60;2.60;;;;;15.89;57.89;100976.72;5029876;28;45421;-63
2023/05/11 03:12:42;;;;;;;;;1.50;1.50;;;;;15.79;58.57;100963.50;5046665;28;45393;-62
2023/05/11 03:15:10;;;;;;;;;2.00;2.00;;;;;15.82;57.97;100968.56;5045961;28;47621;-62
2023/05/11 03:17:36;;;;;;;;;1.00;1.00;;;;;15.77;58.68;100965.69;5045895;28;45512;-63
2023/05/11 03:20:03;;;;;;;;;2.00;2.00;;;;;15.52;58.81;100941.88;5014196;28;45357;-64
2023/05/11 03:22:28;;;;;;;;;1.00;1.00;;;;;15.50;58.98;100966.16;5046155;28;45536;-63
2023/05/11 03:24:54;;;;;;;;;1.00;1.00;;;;;15.25;59.56;100947.84;5045798;28;46459;-63
2023/05/11 03:27:20;;;;;;;;;1.00;1.00;;;;;15.47;59.55;100976.88;5013822;28;45326;-63
2023/05/11 03:29:45;;;;;;;;;3.00;2.00;;;;;15.44;59.12;100956.88;5012623;28;45340;-62
2023/05/11 03:32:11;;;;;;;;;1.75;1.75;;;;;15.51;59.45;100969.75;5046060;28;45454;-63
2023/05/11 03:34:37;;;;;;;;;3.20;2.00;;;;;15.44;59.43;100959.66;5012144;28;45772;-62
2023/05/11 03:37:03;;;;;;;;;1.25;1.25;;;;;15.43;59.34;100955.19;5029301;28;45442;-63
2023/05/11 03:39:30;;;;;;;;;2.00;2.00;;;;;15.48;58.63;100950.88;5045950;28;45431;-63
2023/05/11 03:41:55;;;;;;;;;4.00;2.00;;;;;15.63;58.69;100967.84;5046532;28;45510;-63
2023/05/11 03:44:21;;;;;;;;;2.25;2.25;;;;;15.64;58.67;100966.75;5048870;28;46321;-64
2023/05/11 03:46:46;;;;;;;;;1.00;1.00;;;;;15.72;58.06;100966.41;5017397;28;45400;-63
2023/05/11 03:49:12;;;;;;;;;3.50;2.00;;;;;15.72;58.04;100969.19;5049231;28;45405;-62
2023/05/11 03:51:37;;;;;;;;;4.25;3.00;;;;;15.71;58.35;100964.69;5017730;28;45373;-62
2023/05/11 03:54:04;;;;;;;;;3.00;3.00;;;;;15.64;58.00;100952.09;5032107;28;47416;-63
2023/05/11 03:56:30;;;;;;;;;2.20;1.20;;;;;15.70;58.06;100959.44;5033374;28;45427;-63
2023/05/11 03:58:55;;;;;;;;;3.25;2.00;;;;;15.71;58.42;100955.56;4916823;28;45308;-63
2023/05/11 04:01:21;;;;;;;;;2.25;2.00;;;;;15.68;58.38;100956.91;4931286;28;45596;-63
2023/05/11 04:03:50;;;;;;;;;2.00;2.00;;;;;15.69;58.05;100961.34;4915154;28;46622;-63
2023/05/11 04:06:16;;;;;;;;;4.20;3.60;;;;;15.71;58.47;100963.88;4916423;28;45479;-64
2023/05/11 04:08:42;;;;;;;;;4.40;1.80;;;;;15.62;58.42;100948.75;4915188;28;45413;-63
2023/05/11 04:11:07;;;;;;;;;3.00;2.50;;;;;15.63;58.19;100961.47;4916712;28;45415;-64
2023/05/11 04:13:32;;;;;;;;;3.00;2.00;;;;;15.61;58.33;100958.09;4930575;28;46333;-62
2023/05/11 04:15:58;;;;;;;;;3.00;1.00;;;;;15.54;58.13;100941.63;4930994;28;45421;-62
2023/05/11 04:18:23;;;;;;;;;2.00;2.00;;;;;15.62;58.36;100948.75;4915755;28;45413;-62
2023/05/11 04:20:49;;;;;;;;;2.00;2.00;;;;;15.62;58.34;100955.09;4916483;28;45231;-62
2023/05/11 04:23:14;;;;;;;;;2.00;2.00;;;;;15.69;58.52;100950.28;4916035;28;45483;-62
2023/05/11 04:25:40;;;;;;;;;2.00;2.00;;;;;15.72;58.30;100957.25;4915828;28;45323;-62
2023/05/11 04:28:05;;;;;;;;;7.75;2.00;;;;;15.69;57.97;100957.75;4916013;28;45302;-62
2023/05/11 04:30:31;;;;;;;;;5.00;1.75;;;;;15.69;58.24;100953.03;4916675;28;45225;-61
2023/05/11 04:32:56;;;;;;;;;4.00;3.50;;;;;15.65;58.21;100951.00;4930776;28;46044;-61
2023/05/11 04:35:23;;;;;;;;;3.00;3.00;;;;;15.64;58.02;100955.69;4915949;28;45409;-63
2023/05/11 04:37:49;;;;;;;;;1.60;1.20;;;;;15.58;58.84;100954.72;4916506;28;45398;-63
2023/05/11 04:40:14;;;;;;;;;3.00;2.00;;;;;15.66;58.62;100956.31;4931154;28;45263;-63
2023/05/11 04:42:40;;;;;;;;;3.00;3.00;;;;;15.54;58.17;100953.53;4915782;28;45274;-62
2023/05/11 04:45:06;;;;;;;;;4.75;3.00;;;;;15.58;58.20;100949.19;4915580;28;45343;-64
2023/05/11 04:47:31;;;;;;;;;5.60;4.00;;;;;15.66;58.41;100966.53;4915951;28;45398;-63
2023/05/11 04:49:57;;;;;;;;;7.25;4.00;;;;;15.58;57.92;100959.41;4915018;28;45500;-63
2023/05/11 04:52:22;;;;;;;;;5.00;4.25;;;;;15.57;57.88;100964.13;4915565;28;45401;-63
2023/05/11 04:54:48;;;;;;;;;4.25;2.50;;;;;15.62;58.27;100962.56;4914686;28;45734;-63
2023/05/11 04:57:13;;;;;;;;;2.50;2.50;;;;;15.62;58.24;100968.09;4954029;28;45376;-62
2023/05/11 04:59:39;;;;;;;;;6.00;4.00;;;;;15.59;57.94;100950.06;5016250;28;45303;-62
2023/05/11 05:02:04;;;;;;;;;5.50;4.50;;;;;15.68;58.55;100962.44;5047955;28;45505;-62
2023/05/11 05:04:30;;;;;;;;;6.00;5.00;;;;;15.68;57.78;100961.56;5015852;28;45417;-63
2023/05/11 05:06:55;;;;;;;;;3.75;3.00;;;;;15.67;58.07;100969.06;5016246;28;45383;-66
2023/05/11 05:09:21;;;;;;;;;12.50;6.00;;;;;15.58;58.15;100948.34;5016167;28;45344;-65
2023/05/11 05:11:46;;;;;;;;;5.00;5.00;;;;;15.67;57.91;100971.81;5014610;28;45980;-61
2023/05/11 05:14:11;;;;;;;;;4.25;4.00;;;;;15.71;57.75;100973.00;5015996;28;45452;-64
2023/05/11 05:16:37;;;;;;;;;3.00;3.00;;;;;15.72;57.85;100982.16;5016078;28;45825;-63
2023/05/11 05:19:02;;;;;;;;;6.25;4.25;;;;;15.73;57.73;100983.84;5015951;28;45255;-62
2023/05/11 05:21:28;;;;;;;;;2.75;2.75;;;;;15.73;57.69;100981.06;5047595;28;46284;-64
2023/05/11 05:23:53;;;;;;;;;5.00;5.00;;;;;15.75;57.55;100984.47;5014832;28;45402;-64
2023/05/11 05:26:20;;;;;;;;;4.25;2.75;;;;;15.75;57.90;100987.22;5015904;28;45325;-62
2023/05/11 05:28:45;;;;;;;;;3.00;3.00;;;;;15.66;58.15;100975.69;5015919;28;45466;-62
2023/05/11 05:31:11;;;;;;;;;7.00;3.00;;;;;15.63;57.76;100981.69;5016068;28;45459;-63
2023/05/11 05:33:36;;;;;;;;;3.50;3.00;;;;;15.75;57.96;100987.22;5015670;28;45443;-63
2023/05/11 05:36:02;;;;;;;;;5.50;4.50;;;;;15.72;57.48;100973.84;5015258;28;45425;-63
2023/05/11 05:38:28;;;;;;;;;4.75;4.75;;;;;15.54;57.79;100942.47;5014580;28;45488;-63
2023/05/11 05:40:53;;;;;;;;;4.75;4.75;;;;;15.84;57.58;100990.44;5015303;28;46142;-63
2023/05/11 05:43:18;;;;;;;;;8.75;5.25;;;;;15.91;57.49;100995.88;5015544;28;45428;-63
2023/05/11 05:45:44;;;;;;;;;8.25;6.75;;;;;15.94;57.41;100996.25;5015209;28;45428;-64
2023/05/11 05:48:10;;;;;;;;;6.00;5.00;;;;;15.88;57.09;100988.03;5015482;28;45256;-62
2023/05/11 05:50:36;;;;;;;;;4.25;4.25;;;;;15.88;57.49;101001.88;5015341;28;46221;-63
2023/05/11 05:53:01;;;;;;;;;4.40;4.40;;;;;15.90;57.61;100995.03;5015055;28;45195;-63
2023/05/11 05:55:27;;;;;;;;;4.00;4.00;;;;;15.92;57.75;101003.13;5015415;28;45326;-63
2023/05/11 05:57:53;;;;;;;;;6.50;5.25;;;;;15.88;57.77;100999.09;4951910;28;45488;-63
2023/05/11 06:00:18;;;;;;;;;8.50;6.00;;;;;15.85;57.55;101008.75;4914826;28;45342;-63
2023/05/11 06:02:44;;;;;;;;;7.00;7.00;;;;;15.80;57.60;101001.16;4913493;28;45356;-63
2023/05/11 06:05:09;;;;;;;;;3.00;3.00;;;;;15.77;58.02;100995.28;4914129;28;45460;-63
2023/05/11 06:07:35;;;;;;;;;7.25;5.75;;;;;15.79;57.67;101009.72;4914751;28;45746;-65
2023/05/11 06:10:01;;;;;;;;;4.00;3.00;;;;;15.69;58.07;101002.84;4914118;28;45897;-63
2023/05/11 06:12:27;;;;;;;;;6.40;4.00;;;;;15.83;58.03;101006.22;5015100;28;45908;-62
2023/05/11 06:14:52;;;;;;;;;5.50;5.50;;;;;15.89;57.65;101003.59;5046639;28;45263;-63
2023/05/11 06:17:18;;;;;;;;;7.75;4.00;;;;;16.03;57.80;101015.25;5046965;28;45432;-63
2023/05/11 06:19:43;;;;;;;;;8.00;6.75;;;;;16.07;57.63;101011.75;5013500;28;47033;-64
2023/05/11 06:22:09;;;;;;;;;5.00;5.00;;;;;16.04;57.38;101017.81;5030023;28;45406;-63
2023/05/11 06:24:34;;;;;;;;;7.25;7.25;;;;;16.06;57.59;101012.84;5015089;28;45550;-63
2023/05/11 06:27:00;;;;;;;;;4.75;4.50;;;;;16.04;57.38;101009.50;5015053;28;45454;-64
2023/05/11 06:29:25;;;;;;;;;5.00;4.50;;;;;16.12;57.34;101022.13;5014460;28;46339;-64
2023/05/11 06:31:53;;;;;;;;;10.25;6.50;;;;;16.18;57.35;101023.94;5015115;28;45333;-63
2023/05/11 06:34:19;;;;;;;;;7.20;6.00;;;;;16.19;57.08;101031.16;5014500;28;45402;-62
2023/05/11 06:36:45;;;;;;;;;5.00;5.00;;;;;16.10;57.25;101022.38;5014010;28;45663;-63
2023/05/11 06:39:10;;;;;;;;;5.75;3.25;;;;;16.07;57.31;101022.84;5014919;28;46340;-62
2023/05/11 06:41:36;;;;;;;;;5.50;4.75;;;;;16.11;57.37;101028.72;5015349;28;45452;-63
2023/05/11 06:44:01;;;;;;;;;9.25;5.75;;;;;16.06;57.35;101026.69;5047277;28;45221;-63
2023/05/11 06:46:27;;;;;;;;;5.50;4.75;;;;;16.08;57.23;101032.84;5013714;28;45294;-64
2023/05/11 06:48:53;;;;;;;;;7.00;5.00;;;;;16.08;57.62;101030.09;5015165;28;45301;-63
2023/05/11 06:51:20;;;;;;;;;5.50;5.00;;;;;16.01;57.69;101012.72;5014356;28;45290;-64
2023/05/11 06:53:46;;;;;;;;;6.60;5.40;;;;;16.11;57.77;101035.13;5014909;28;45424;-63
2023/05/11 06:56:11;;;;;;;;;6.75;5.50;;;;;16.07;57.49;101030.31;5015027;28;45532;-63
2023/05/11 06:58:37;;;;;;;;;7.00;7.00;;;;;16.01;57.35;101026.56;4939795;28;45277;-63
2023/05/11 07:01:04;;;;;;;;;7.00;6.00;;;;;16.02;57.83;101033.81;4914498;28;45311;-63
2023/05/11 07:03:30;;;;;;;;;5.40;4.20;;;;;16.09;57.80;101029.00;4914158;28;45763;-63
2023/05/11 07:05:55;;;;;;;;;7.25;6.00;;;;;16.11;57.58;101032.34;4915191;28;45436;-62
2023/05/11 07:08:21;;;;;;;;;5.00;5.00;;;;;16.12;57.76;101030.44;4914912;28;46343;-66
2023/05/11 07:10:46;;;;;;;;;6.25;5.00;;;;;16.19;57.68;101035.84;4914854;28;45383;-63
2023/05/11 07:13:13;;;;;;;;;8.50;8.25;;;;;16.28;57.43;101033.53;4929772;28;45397;-63
2023/05/11 07:15:38;;;;;;;;;7.40;6.60;;;;;16.17;57.67;101035.25;4928753;28;45426;-64
2023/05/11 07:18:04;;;;;;;;;8.00;6.75;;;;;16.26;57.17;101025.47;4930717;28;46260;-64
2023/05/11 07:20:29;;;;;;;;;6.75;5.75;;;;;16.38;57.47;101025.44;4915545;28;45469;-62
2023/05/11 07:22:58;;;;;;;;;6.00;6.00;;;;;16.48;57.22;101022.91;4916001;28;45439;-62
2023/05/11 07:25:24;;;;;;;;;8.20;6.60;;;;;16.43;56.54;101025.56;4917327;28;45468;-62
2023/05/11 07:27:49;;;;;;;;;10.20;7.20;;;;;16.41;56.79;101027.72;4915709;28;46484;-62
2023/05/11 07:30:15;;;;;;;;;7.50;7.50;;;;;16.47;56.68;101024.00;4917012;28;45386;-62
2023/05/11 07:32:41;;;;;;;;;8.20;6.00;;;;;16.55;56.38;101019.16;4911480;28;45542;-62
2023/05/11 07:35:07;;;;;;;;;7.50;5.50;;;;;16.51;56.55;101010.50;4996702;28;45519;-62
2023/05/11 07:37:32;;;;;;;;;9.00;7.00;;;;;16.66;56.40;101027.41;5017486;28;46971;-61
2023/05/11 07:39:58;;;;;;;;;38.50;25.75;;;;;16.61;56.65;101024.56;5032333;28;45483;-62
2023/05/11 07:42:23;;;;;;;;;16.50;11.50;;;;;16.68;56.19;101021.63;5016346;28;45393;-62
2023/05/11 07:44:48;;;;;;;;;5.75;4.75;;;;;16.78;55.74;101023.78;5017559;28;45503;-62
2023/05/11 07:47:15;;;;;;;;;9.00;7.25;;;;;16.75;55.78;101021.50;5032497;28;47234;-61
2023/05/11 07:49:41;;;;;;;;;6.80;6.80;;;;;16.79;55.48;101029.06;5017214;28;45403;-62
2023/05/11 07:52:06;;;;;;;;;7.25;7.25;;;;;16.85;55.60;101024.47;5049671;28;45336;-62
2023/05/11 07:54:32;;;;;;;;;9.50;8.25;;;;;16.90;55.07;101029.25;5049728;28;45416;-62
2023/05/11 07:56:57;;;;;;;;;7.25;6.00;;;;;16.89;55.04;101022.88;5049203;28;48127;-61
2023/05/11 07:59:23;;;;;;;;;7.00;7.00;;;;;16.96;54.99;101036.59;4951421;28;45250;-62
2023/05/11 08:01:48;;;;;;;;;8.25;8.25;;;;;17.01;55.07;101028.38;4916656;28;45292;-62
2023/05/11 08:04:14;;;;;;;;;9.75;6.75;;;;;17.10;55.05;101023.31;4947861;28;45687;-62
2023/05/11 08:06:39;;;;;;;;;8.50;7.50;;;;;17.21;54.88;101016.00;4930383;28;46126;-62
2023/05/11 08:09:05;;;;;;;;;7.25;6.75;;;;;17.26;54.43;101023.56;4916124;28;45272;-62
2023/05/11 08:11:34;;;;;;;;;8.50;8.50;;;;;17.25;54.42;101022.75;4931290;28;45456;-64
2023/05/11 08:13:59;;;;;;;;;10.00;10.00;;;;;17.20;54.15;101023.47;4916037;28;45351;-62
2023/05/11 08:16:25;;;;;;;;;6.75;5.50;;;;;17.02;54.52;100994.03;4946791;28;46032;-61
2023/05/11 08:18:51;;;;;;;;;5.50;5.50;;;;;17.19;54.28;101023.75;4910176;28;45828;-63
2023/05/11 08:21:17;;;;;;;;;7.75;6.75;;;;;17.15;53.89;101020.63;4931707;28;45793;-62
2023/05/11 08:23:43;;;;;;;;;8.40;7.00;;;;;17.18;54.19;101013.75;4926793;28;45441;-60
2023/05/11 08:26:09;;;;;;;;;6.50;6.00;;;;;17.27;53.91;101026.09;4930909;28;46273;-60
2023/05/11 08:28:35;;;;;;;;;32.60;19.20;;;;;17.22;54.20;101008.53;4930298;28;45281;-62
2023/05/11 08:31:00;;;;;;;;;12.25;8.50;;;;;17.36;53.65;101012.66;4963098;28;45376;-60
2023/05/11 08:33:26;;;;;;;;;4.00;4.00;;;;;17.52;53.38;101030.41;4903744;28;45606;-61
2023/05/11 08:35:52;;;;;;;;;12.00;8.00;;;;;17.55;52.85;101017.97;4900267;28;46601;-62
2023/05/11 08:38:20;;;;;;;;;6.25;6.25;;;;;17.59;52.91;101011.66;4926121;28;45592;-61
2023/05/11 08:40:47;;;;;;;;;5.60;4.80;;;;;17.65;52.80;101018.13;4931202;28;45414;-58
2023/05/11 08:43:16;;;;;;;;;8.00;8.00;;;;;17.77;52.33;101017.19;4932840;28;45326;-59
2023/05/11 08:45:46;;;;;;;;;9.60;9.60;;;;;17.85;52.55;101023.16;4932852;28;46448;-60
2023/05/11 08:48:14;;;;;;;;;10.80;8.80;;;;;17.91;51.98;101020.44;4956019;28;45641;-59
2023/05/11 08:50:40;;;;;;;;;9.60;9.20;;;;;17.93;51.93;101015.50;4913109;28;45425;-59
2023/05/11 08:53:06;;;;;;;;;9.20;7.80;;;;;17.91;51.71;101024.06;4996007;28;46707;-59
2023/05/11 08:55:31;;;;;;;;;11.50;10.50;;;;;17.90;52.01;101022.41;4913538;28;45788;-60
2023/05/11 08:57:57;;;;;;;;;8.25;5.75;;;;;17.88;51.84;101021.81;4919122;28;45567;-60
2023/05/11 09:00:23;;;;;;;;;7.50;7.50;;;;;17.87;52.04;101020.09;4955551;28;45436;-60
2023/05/11 09:02:48;;;;;;;;;10.00;9.00;;;;;17.89;51.75;101017.94;4931638;28;45379;-63
2023/05/11 09:05:14;;;;;;;;;10.75;9.00;;;;;17.85;51.73;101008.44;4931595;28;46581;-60
2023/05/11 09:07:40;;;;;;;;;8.00;7.00;;;;;17.73;52.42;101012.13;4964063;28;45278;-60
2023/05/11 09:10:07;;;;;;;;;8.20;7.80;;;;;17.92;52.00;101011.88;4933526;28;45339;-60
2023/05/11 09:12:32;;;;;;;;;9.20;7.20;;;;;17.92;51.81;101002.72;4933770;28;45511;-61
2023/05/11 09:14:58;;;;;;;;;10.00;8.00;;;;;17.98;51.70;101004.47;4963751;28;45561;-60
2023/05/11 09:17:25;;;;;;;;;6.50;6.50;;;;;18.18;51.44;101008.66;4931173;28;45474;-61
2023/05/11 09:20:01;;;;;;;;;8.20;8.20;;;;;18.14;51.28;101022.19;4963975;28;45406;-60
2023/05/11 09:22:27;;;;;;;;;6.40;5.80;;;;;18.20;50.93;101015.63;4933176;28;45344;-61
2023/05/11 09:24:52;;;;;;;;;8.80;7.00;;;;;18.27;51.03;101005.19;4932971;28;45370;-60
2023/05/11 09:27:18;;;;;;;;;11.25;9.25;;;;;18.39;51.28;101015.31;4956735;28;45345;-60
2023/05/11 09:29:44;;;;;;;;;7.25;6.25;;;;;18.50;50.54;101013.50;4919316;28;45507;-60
2023/05/11 09:32:09;;;;;;;;;9.50;7.75;;;;;18.51;50.50;101013.25;4964595;28;45446;-61
2023/05/11 09:34:34;;;;;;;;;8.25;8.25;;;;;18.53;50.34;101016.59;4932461;28;45856;-62
2023/05/11 09:37:00;;;;;;;;;9.25;7.75;;;;;18.39;50.23;101009.75;4933135;28;45515;-59
2023/05/11 09:39:33;;;;;;;;;7.25;7.00;;;;;18.42;50.43;101007.28;4932863;28;45452;-59
2023/05/11 09:42:18;;;;;;;;;7.40;7.20;;;;;18.44;50.85;101007.03;4955111;28;45422;-60
2023/05/11 09:44:44;;;;;;;;;8.40;7.80;;;;;18.49;50.77;101021.00;4913419;28;46244;-58
2023/05/11 09:47:14;;;;;;;;;9.00;8.00;;;;;18.34;50.36;101007.75;4912727;28;45457;-61
2023/05/11 09:49:43;;;;;;;;;34.80;21.00;;;;;18.25;50.41;101006.53;4928256;28;45468;-62
2023/05/11 09:52:13;;;;;;;;;5.00;5.00;;;;;18.10;50.25;100999.66;4914185;28;45378;-60
2023/05/11 09:54:41;;;;;;;;;5.40;4.80;;;;;18.23;49.95;101009.56;4921940;28;47612;-61
2023/05/11 09:57:08;;;;;;;;;6.60;6.60;;;;;18.26;49.95;101000.69;4932050;28;45831;-60
2023/05/11 09:59:40;;;;;;;;;5.60;5.60;;;;;18.32;50.76;101001.63;4919681;28;45950;-62
2023/05/11 10:02:23;;;;;;;;;6.20;5.20;;;;;18.06;50.49;100995.72;4921325;28;45662;-60
2023/05/11 10:04:50;;;;;;;;;6.40;6.40;;;;;18.08;51.05;100998.25;4904721;28;45629;-58
2023/05/11 10:07:31;;;;;;;;;7.80;6.20;;;;;18.16;51.25;100986.69;4920547;28;45394;-61
2023/05/11 10:09:58;;;;;;;;;8.00;7.60;;;;;18.32;50.53;100998.84;4911727;28;45414;-59
2023/05/11 10:12:24;;;;;;;;;11.00;9.20;;;;;18.34;49.26;100988.31;4912897;28;45521;-59
2023/05/11 10:14:52;;;;;;;;;6.00;6.00;;;;;18.31;49.70;100994.38;4926366;28;46489;-58
2023/05/11 10:17:18;;;;;;;;;6.60;6.00;;;;;18.25;49.87;100992.66;4911576;28;45418;-59
2023/05/11 10:19:45;;;;;;;;;5.80;5.80;;;;;18.33;49.26;100977.44;4901800;28;45513;-60
2023/05/11 10:22:11;;;;;;;;;8.60;6.20;;;;;18.39;49.16;100993.94;4920591;28;45579;-59
2023/05/11 10:24:37;;;;;;;;;30.00;20.25;;;;;18.41;49.93;100993.69;4926297;28;46507;-60
2023/05/11 10:27:02;;;;;;;;;6.50;5.50;;;;;18.42;49.39;100996.19;4912629;28;45572;-60
2023/05/11 10:29:28;;;;;;;;;6.50;4.50;;;;;18.34;49.18;100990.22;4912790;28;45310;-60
2023/05/11 10:31:54;;;;;;;;;6.40;4.80;;;;;18.34;49.01;100991.09;4911772;28;46120;-60
2023/05/11 10:34:22;;;;;;;;;8.00;8.00;;;;;18.27;49.48;100982.97;4925507;28;48259;-60
2023/05/11 10:36:47;;;;;;;;;6.00;4.80;;;;;18.25;49.37;100978.75;4912696;28;45426;-60
2023/05/11 10:39:13;;;;;;;;;7.00;5.50;;;;;18.22;49.43;100977.31;4911959;28;45981;-61
2023/05/11 10:41:44;;;;;;;;;7.25;6.25;;;;;18.25;49.53;100982.34;4913622;28;45559;-60
2023/05/11 10:44:24;;;;;;;;;6.00;4.00;;;;;18.17;49.42;100985.59;4922768;28;45615;-60
2023/05/11 10:46:52;;;;;;;;;6.40;5.20;;;;;18.11;49.44;100993.03;4924751;28;45868;-63
2023/05/11 10:49:40;;;;;;;;;7.00;5.40;;;;;18.09;49.80;100984.09;4911344;28;45409;-66
2023/05/11 10:52:22;;;;;;;;;6.40;6.20;;;;;18.00;49.69;100968.94;4926279;28;45698;-66
2023/05/11 10:55:00;;;;;;;;;9.60;7.00;;;;;17.97;49.35;100977.78;4913559;28;45878;-66
2023/05/11 10:57:53;;;;;;;;;10.20;10.20;;;;;17.77;49.89;100954.16;4914156;28;45881;-66
2023/05/11 11:00:46;;;;;;;;;5.00;5.00;;;;;17.97;50.42;100983.31;5000431;28;45291;-65
2023/05/11 11:03:12;;;;;;;;;7.20;7.20;;;;;17.94;50.29;100981.94;4999949;28;45623;-66
2023/05/11 11:05:38;;;;;;;;;12.80;9.20;;;;;17.66;51.04;100972.63;5024743;28;45765;-64
2023/05/11 11:08:04;;;;;;;;;9.00;8.00;;;;;17.72;50.95;100977.16;5009634;28;45305;-64
2023/05/11 11:10:34;;;;;;;;;7.80;7.80;;;;;17.65;51.24;100968.16;5007705;28;45413;-67
2023/05/11 11:13:04;;;;;;;;;8.40;7.40;;;;;17.70;51.11;100982.13;5014385;28;45631;-62
2023/05/11 11:16:01;;;;;;;;;10.60;8.80;;;;;17.74;50.96;100986.09;5045396;28;46112;-63
2023/05/11 11:18:27;;;;;;;;;14.80;10.40;;;;;17.63;51.57;100963.97;5014479;28;45298;-64
2023/05/11 11:20:54;;;;;;;;;10.00;9.20;;;;;17.72;51.28;100979.09;5014796;28;45451;-62
2023/05/11 11:23:38;;;;;;;;;8.00;8.00;;;;;17.70;51.08;100979.34;5045777;28;45564;-63